Crown Topaz — 3FAS9 — position and weather

sailwx.info

Track history (hours):
 
Tides and Currents Weather Stations Pressure Air Temp Water Temp Dewpoint Dewpoint Depression Visibility Wind Speed Wind Dir Waves Ship Positions

Crown Topaz

Last reported at 2014-Nov-01 05:11 UTC. Time now 2014-Nov-01 06:57 UTC.
Position N 50°15' W 002°30'.

Length 152 m; draft 7.8 m.

Type: Cargo ship. MMSI: 357144000.

Date/timePositionNaut miles runAvg speedWind from/ knotsBaromVisibWave heightAir tempDewpointWater temp
2014-Nov-01 05:11N 50°15' W 002°30'1218.8
2014-Nov-01 04:34N 50°12' W 002°48'1919.0
2014-Nov-01 03:34N 50°06' W 003°16'  
2014-Oct-29 16:14N 39°21' W 024°50'1619.5
2014-Oct-29 15:24N 39°11' W 025°07'1619.3
2014-Oct-29 14:33N 39°01' W 025°24'1919.1
2014-Oct-29 13:33N 38°50' W 025°44'1919.3
2014-Oct-29 12:33N 38°40' W 026°05'1919.1
2014-Oct-29 11:33N 38°31' W 026°26'1918.8
2014-Oct-29 10:33N 38°23' W 026°48'1919.1
2014-Oct-29 09:33N 38°16' W 027°11'1918.9
2014-Oct-29 08:33N 38°08' W 027°33'1919.1
2014-Oct-29 07:34N 38°01' W 027°55'2019.5
2014-Oct-29 06:33N 37°53' W 028°18'2019.6
2014-Oct-29 05:33N 37°45' W 028°40'1919.3
2014-Oct-29 04:33N 37°38' W 029°03'1919.1
2014-Oct-29 03:33N 37°30' W 029°25'1918.8
2014-Oct-29 02:33N 37°22' W 029°47'2218.7
2014-Oct-29 01:22N 37°14' W 030°12'1619.0
2014-Oct-29 00:32N 37°07' W 030°30'  
Track history (hours):
 
Tides and Currents Weather Stations Pressure Air Temp Water Temp Dewpoint Dewpoint Depression Visibility Wind Speed Wind Dir Waves Ship Positions

Crown Topaz

Last reported at 2014-Nov-01 05:11 UTC. Time now 2014-Nov-01 06:57 UTC.
Position N 50°15' W 002°30'.

Length 152 m; draft 7.8 m.

Type: Cargo ship. MMSI: 357144000.

Date/timePositionNaut miles runAvg speedWind from/ knotsBaromVisibWave heightAir tempDewpointWater temp
2014-Nov-01 05:11N 50°15' W 002°30'1218.8
2014-Nov-01 04:34N 50°12' W 002°48'1919.0
2014-Nov-01 03:34N 50°06' W 003°16'  
2014-Oct-29 16:14N 39°21' W 024°50'1619.5
2014-Oct-29 15:24N 39°11' W 025°07'1619.3
2014-Oct-29 14:33N 39°01' W 025°24'1919.1
2014-Oct-29 13:33N 38°50' W 025°44'1919.3
2014-Oct-29 12:33N 38°40' W 026°05'1919.1
2014-Oct-29 11:33N 38°31' W 026°26'1918.8
2014-Oct-29 10:33N 38°23' W 026°48'1919.1
2014-Oct-29 09:33N 38°16' W 027°11'1918.9
2014-Oct-29 08:33N 38°08' W 027°33'1919.1
2014-Oct-29 07:34N 38°01' W 027°55'2019.5
2014-Oct-29 06:33N 37°53' W 028°18'2019.6
2014-Oct-29 05:33N 37°45' W 028°40'1919.3
2014-Oct-29 04:33N 37°38' W 029°03'1919.1
2014-Oct-29 03:33N 37°30' W 029°25'1918.8
2014-Oct-29 02:33N 37°22' W 029°47'2218.7
2014-Oct-29 01:22N 37°14' W 030°12'1619.0
2014-Oct-29 00:32N 37°07' W 030°30'  

Dump ship's entire track history